createdAt,value
2019-02-09T00:02:24.978Z,62.07
2019-02-09T00:04:54.657Z,61.95
2019-02-09T00:07:25.318Z,62.33
2019-02-09T00:09:54.934Z,62.83
2019-02-09T00:12:26.252Z,62.42
2019-02-09T00:14:55.685Z,62.48
2019-02-09T00:17:26.110Z,62.42
2019-02-09T00:19:57.002Z,62.19
2019-02-09T00:22:26.513Z,62.38
2019-02-09T00:24:55.996Z,62.42
2019-02-09T00:27:25.564Z,62.80
2019-02-09T00:29:56.094Z,63.17
2019-02-09T00:32:25.522Z,63.88
2019-02-09T00:34:56.137Z,63.94
2019-02-09T00:37:25.584Z,64.05
2019-02-09T00:39:56.038Z,64.25
2019-02-09T00:42:25.916Z,64.59
2019-02-09T00:44:57.335Z,65.39
2019-02-09T00:47:26.887Z,65.93
2019-02-09T00:49:56.581Z,66.29
2019-02-09T00:52:27.212Z,66.84
2019-02-09T00:54:56.661Z,67.20
2019-02-09T00:57:26.420Z,67.52
2019-02-09T00:59:56.884Z,68.00
2019-02-09T01:02:26.540Z,68.37
2019-02-09T01:04:56.492Z,68.95
2019-02-09T01:07:25.928Z,69.45
2019-02-09T01:09:56.458Z,69.56
2019-02-09T01:12:26.007Z,70.01
2019-02-09T01:14:56.757Z,69.94
2019-02-09T01:17:28.012Z,69.81
2019-02-09T01:19:58.627Z,69.83
2019-02-09T01:22:28.154Z,70.07
2019-02-09T01:24:57.660Z,70.07
2019-02-09T01:27:28.314Z,70.30
2019-02-09T01:30:02.570Z,70.41
2019-02-09T01:32:29.940Z,70.30
2019-02-09T01:35:03.064Z,70.36
2019-02-09T01:37:33.551Z,70.19
2019-02-09T01:40:04.411Z,70.39
2019-02-09T01:42:35.500Z,71.01
2019-02-09T01:45:07.521Z,71.18
2019-02-09T01:47:38.658Z,71.57
2019-02-09T01:50:10.107Z,71.69
2019-02-09T01:52:41.669Z,72.46
2019-02-09T01:55:14.290Z,73.09
2019-02-09T01:57:44.747Z,72.94
2019-02-09T02:00:16.747Z,73.41
2019-02-09T02:02:46.248Z,73.04
2019-02-09T02:05:18.127Z,73.01
2019-02-09T02:07:49.351Z,72.77
2019-02-09T02:10:42.280Z,73.52
2019-02-09T02:13:13.027Z,74.05
2019-02-09T02:15:45.790Z,74.22
2019-02-09T02:18:15.312Z,74.31
2019-02-09T02:20:45.913Z,74.04
2019-02-09T02:23:16.763Z,73.94
2019-02-09T02:25:47.628Z,73.43
2019-02-09T02:28:18.563Z,73.70
2019-02-09T02:30:48.160Z,73.93
2019-02-09T02:33:17.651Z,73.78
2019-02-09T02:35:47.157Z,73.90
2019-02-09T02:38:18.046Z,73.83
2019-02-09T02:40:47.596Z,74.01
2019-02-09T02:43:17.225Z,74.58
2019-02-09T02:45:49.705Z,74.98
2019-02-09T02:48:19.213Z,74.70
2019-02-09T02:50:48.756Z,74.59
2019-02-09T02:53:18.162Z,74.56
2019-02-09T02:55:47.784Z,74.74
2019-02-09T02:58:18.295Z,74.99
2019-02-09T03:00:48.805Z,74.80
2019-02-09T03:03:18.507Z,74.99
2019-02-09T03:05:49.401Z,74.95
2019-02-09T03:08:22.142Z,74.63
2019-02-09T03:10:51.664Z,74.68
2019-02-09T03:13:21.093Z,74.75
2019-02-09T03:15:51.818Z,74.40
2019-02-09T03:18:21.604Z,74.36
2019-02-09T03:20:52.495Z,74.36
2019-02-09T03:23:21.919Z,74.04
2019-02-09T03:25:51.695Z,73.74
2019-02-09T03:28:21.273Z,73.65
2019-02-09T03:30:50.810Z,73.32
2019-02-09T03:33:20.522Z,73.28
2019-02-09T03:35:50.008Z,73.99
2019-02-09T03:38:20.924Z,74.03
2019-02-09T03:40:50.487Z,73.99
2019-02-09T03:43:19.963Z,73.51
2019-02-09T03:45:50.498Z,73.64
2019-02-09T03:48:20.204Z,73.23
2019-02-09T03:50:49.680Z,73.59
2019-02-09T03:53:20.411Z,74.18
2019-02-09T03:55:49.966Z,74.14
2019-02-09T03:58:19.374Z,74.14
2019-02-09T04:00:55.437Z,74.12
2019-02-09T04:03:21.702Z,73.70
2019-02-09T04:05:52.309Z,73.69
2019-02-09T04:08:24.661Z,74.22
2019-02-09T04:10:54.800Z,74.61
2019-02-09T04:13:27.009Z,74.47
2019-02-09T04:15:56.606Z,74.30
2019-02-09T04:18:27.592Z,74.57
2019-02-09T04:20:57.208Z,74.06
2019-02-09T04:23:26.608Z,74.08
2019-02-09T04:25:57.521Z,73.72
2019-02-09T04:28:26.977Z,73.55
2019-02-09T04:31:05.269Z,73.37
2019-02-09T04:33:27.730Z,73.22
2019-02-09T04:35:57.287Z,73.46
2019-02-09T04:38:26.739Z,73.32
2019-02-09T04:40:56.596Z,73.15
2019-02-09T04:43:27.227Z,73.45
2019-02-09T04:45:58.149Z,73.51
2019-02-09T04:48:29.721Z,73.65
2019-02-09T04:50:59.152Z,73.30
2019-02-09T04:53:28.563Z,73.41
2019-02-09T04:55:58.035Z,73.62
2019-02-09T04:58:27.478Z,73.28
2019-02-09T05:00:57.063Z,72.78
2019-02-09T05:03:27.682Z,73.07
2019-02-09T05:05:57.301Z,73.57
2019-02-09T05:08:26.792Z,73.53
2019-02-09T05:10:58.036Z,73.29
2019-02-09T05:13:28.991Z,73.01
2019-02-09T05:15:58.769Z,73.09
2019-02-09T05:18:28.412Z,73.37
2019-02-09T05:20:59.310Z,72.97
2019-02-09T05:23:28.798Z,73.53
2019-02-09T05:25:58.240Z,74.01
2019-02-09T05:28:27.760Z,74.18
2019-02-09T05:30:58.953Z,74.18
2019-02-09T05:33:28.736Z,73.84
2019-02-09T05:35:58.173Z,73.33
2019-02-09T05:38:27.571Z,73.08
2019-02-09T05:40:58.134Z,72.92
2019-02-09T05:43:28.588Z,72.87
2019-02-09T05:45:58.030Z,73.08
2019-02-09T05:48:27.506Z,73.36
2019-02-09T05:50:56.889Z,73.46
2019-02-09T05:53:26.271Z,73.67
2019-02-09T05:55:55.725Z,73.31
2019-02-09T05:58:25.160Z,73.38
2019-02-09T06:00:54.625Z,73.41
2019-02-09T06:03:25.416Z,73.47
2019-02-09T06:05:54.830Z,73.78
2019-02-09T06:08:25.324Z,74.05
2019-02-09T06:10:54.852Z,74.02
2019-02-09T06:13:24.396Z,73.71
2019-02-09T06:15:53.760Z,73.88
2019-02-09T06:18:23.391Z,73.42
2019-02-09T06:20:53.245Z,73.41
2019-02-09T06:23:24.201Z,73.76
2019-02-09T06:25:55.072Z,73.95
2019-02-09T06:28:25.818Z,73.67
2019-02-09T06:30:56.262Z,73.26
2019-02-09T06:33:27.685Z,72.79
2019-02-09T06:35:57.110Z,72.66
2019-02-09T06:38:27.881Z,72.42
2019-02-09T06:40:58.641Z,71.92
2019-02-09T06:43:28.141Z,71.68
2019-02-09T06:45:57.521Z,71.86
2019-02-09T06:48:29.060Z,72.12
2019-02-09T06:51:02.081Z,71.79
2019-02-09T06:53:31.795Z,72.32
2019-02-09T06:56:03.232Z,73.17
2019-02-09T06:58:33.652Z,73.83
2019-02-09T07:01:03.058Z,75.09
2019-02-09T07:03:32.767Z,76.72
2019-02-09T07:06:05.486Z,78.02
2019-02-09T07:08:34.889Z,79.78
2019-02-09T07:11:06.200Z,80.52
2019-02-09T07:13:35.700Z,80.46
2019-02-09T07:16:05.594Z,80.37
2019-02-09T07:18:35.342Z,80.31
2019-02-09T07:21:05.253Z,80.29
2019-02-09T07:23:34.946Z,80.33
2019-02-09T07:26:06.415Z,80.31
2019-02-09T07:28:38.731Z,80.13
2019-02-09T07:31:08.271Z,79.69
2019-02-09T07:33:39.651Z,79.74
2019-02-09T07:36:09.127Z,79.78
2019-02-09T07:38:41.153Z,79.30
2019-02-09T07:41:12.571Z,79.08
2019-02-09T07:43:42.145Z,78.84
2019-02-09T07:46:14.178Z,78.29
2019-02-09T07:48:44.654Z,77.79
2019-02-09T07:51:14.280Z,77.79
2019-02-09T07:53:44.466Z,77.61
2019-02-09T07:56:14.380Z,77.44
2019-02-09T07:58:45.811Z,77.04
2019-02-09T08:01:15.212Z,76.34
2019-02-09T08:03:45.823Z,75.54
2019-02-09T08:06:15.342Z,75.81
2019-02-09T08:08:44.729Z,75.25
2019-02-09T08:11:14.463Z,74.83
2019-02-09T08:13:44.433Z,74.74
2019-02-09T08:16:16.236Z,74.51
2019-02-09T08:18:47.401Z,73.91
2019-02-09T08:21:17.070Z,73.43
2019-02-09T08:23:48.954Z,73.19
2019-02-09T08:26:19.614Z,73.14
2019-02-09T08:28:49.471Z,72.74
2019-02-09T08:31:18.910Z,72.90
2019-02-09T08:33:48.482Z,73.04
2019-02-09T08:36:17.946Z,72.98
2019-02-09T08:38:47.389Z,72.48
2019-02-09T08:41:17.108Z,72.70
2019-02-09T08:43:46.798Z,72.68
2019-02-09T08:46:16.224Z,72.51
2019-02-09T08:48:45.707Z,72.54
2019-02-09T08:51:16.090Z,71.99
2019-02-09T08:53:47.083Z,72.21
2019-02-09T08:56:17.897Z,71.46
2019-02-09T08:58:49.050Z,70.49
2019-02-09T09:01:18.453Z,70.61
2019-02-09T09:03:47.902Z,70.49
2019-02-09T09:06:18.426Z,70.31
2019-02-09T09:08:50.860Z,69.75
2019-02-09T09:11:22.330Z,69.22
2019-02-09T09:13:51.854Z,69.37
2019-02-09T09:16:21.366Z,69.49
2019-02-09T09:18:51.018Z,69.76
2019-02-09T09:21:20.439Z,69.24
2019-02-09T09:23:51.714Z,69.06
2019-02-09T09:26:22.335Z,68.78
2019-02-09T09:28:51.907Z,69.11
2019-02-09T09:31:21.815Z,68.52
2019-02-09T09:33:51.610Z,68.06
2019-02-09T09:36:22.937Z,67.01
2019-02-09T09:38:52.395Z,65.76
2019-02-09T09:41:22.964Z,66.10
2019-02-09T09:43:52.403Z,65.45
2019-02-09T09:46:21.895Z,65.00
2019-02-09T09:48:53.450Z,64.49
2019-02-09T09:51:23.896Z,64.26
2019-02-09T09:53:53.383Z,63.97
2019-02-09T09:56:26.894Z,63.56
2019-02-09T09:58:56.465Z,61.86
2019-02-09T10:01:25.892Z,60.07
2019-02-09T10:03:55.503Z,60.20
2019-02-09T10:06:24.970Z,59.09
2019-02-09T10:08:57.333Z,59.01
2019-02-09T10:11:29.453Z,58.72
2019-02-09T10:13:58.959Z,58.22
2019-02-09T10:16:30.054Z,57.60
2019-02-09T10:18:59.740Z,58.88
2019-02-09T10:21:29.276Z,59.26
2019-02-09T10:23:58.813Z,59.53
2019-02-09T10:26:29.715Z,59.48
2019-02-09T10:29:01.823Z,59.99
2019-02-09T10:31:34.237Z,59.98
2019-02-09T10:34:04.094Z,59.55
2019-02-09T10:36:35.331Z,60.01
2019-02-09T10:39:08.399Z,60.05
2019-02-09T10:41:38.242Z,59.63
2019-02-09T10:44:09.377Z,58.89
2019-02-09T10:46:41.464Z,57.97
2019-02-09T10:49:12.052Z,57.38
2019-02-09T10:51:41.662Z,57.58
2019-02-09T10:54:11.132Z,57.17
2019-02-09T10:56:41.942Z,57.29
2019-02-09T10:59:12.634Z,57.41
2019-02-09T11:01:42.650Z,56.42
2019-02-09T11:04:12.390Z,55.36
2019-02-09T11:06:42.105Z,54.72
2019-02-09T11:09:20.767Z,55.13
2019-02-09T11:11:50.495Z,54.36
2019-02-09T11:14:20.241Z,54.32
2019-02-09T11:16:50.824Z,54.27
2019-02-09T11:19:20.495Z,53.85
2019-02-09T11:21:50.040Z,53.07
2019-02-09T11:24:21.033Z,52.86
2019-02-09T11:26:53.720Z,53.19
2019-02-09T11:29:23.257Z,53.06
2019-02-09T11:31:52.796Z,53.35
2019-02-09T11:34:22.465Z,53.21
2019-02-09T11:36:51.927Z,53.32
2019-02-09T11:39:21.739Z,53.03
2019-02-09T11:41:51.412Z,52.88
2019-02-09T11:44:20.948Z,52.91
2019-02-09T11:46:52.298Z,52.38
2019-02-09T11:49:21.981Z,52.51
2019-02-09T11:51:51.422Z,51.96
2019-02-09T11:54:24.119Z,52.47
2019-02-09T11:56:53.770Z,52.17
2019-02-09T11:59:27.307Z,51.64
2019-02-09T12:01:58.521Z,51.95
2019-02-09T12:04:28.229Z,52.31
2019-02-09T12:06:59.441Z,52.24
2019-02-09T12:09:35.107Z,52.17
2019-02-09T12:12:02.516Z,51.96
2019-02-09T12:14:33.103Z,51.76
2019-02-09T12:17:02.651Z,51.95
2019-02-09T12:19:35.082Z,51.88
2019-02-09T12:22:05.758Z,51.42
2019-02-09T12:24:36.271Z,51.68
2019-02-09T12:27:05.941Z,51.31
2019-02-09T12:29:35.456Z,51.35
2019-02-09T12:32:05.737Z,51.52
2019-02-09T12:34:35.385Z,51.10
2019-02-09T12:37:05.134Z,51.06
2019-02-09T12:39:35.757Z,51.22
2019-02-09T12:42:05.519Z,50.88
2019-02-09T12:44:35.286Z,51.29
2019-02-09T12:47:04.974Z,50.97
2019-02-09T12:49:35.488Z,50.92
2019-02-09T12:52:05.013Z,51.34
2019-02-09T12:54:34.447Z,50.81
2019-02-09T12:57:07.049Z,50.25
2019-02-09T12:59:38.223Z,50.72
2019-02-09T13:02:09.584Z,50.23
2019-02-09T13:04:38.999Z,50.09
2019-02-09T13:07:08.673Z,49.65
2019-02-09T13:09:39.981Z,49.44
2019-02-09T13:12:11.476Z,49.48
2019-02-09T13:14:40.892Z,49.80
2019-02-09T13:17:11.755Z,49.68
2019-02-09T13:19:42.300Z,49.60
2019-02-09T13:22:11.765Z,49.94
2019-02-09T13:24:42.386Z,50.41
2019-02-09T13:27:11.971Z,49.70
2019-02-09T13:29:41.439Z,49.49
2019-02-09T13:32:12.649Z,49.36
2019-02-09T13:34:44.000Z,49.76
2019-02-09T13:37:15.242Z,50.10
2019-02-09T13:39:44.694Z,50.12
2019-02-09T13:42:14.464Z,50.39
2019-02-09T13:44:44.953Z,50.25
2019-02-09T13:47:14.580Z,49.90
2019-02-09T13:49:45.498Z,50.13
2019-02-09T13:52:17.827Z,49.69
2019-02-09T13:54:47.228Z,49.41
2019-02-09T13:57:17.055Z,49.37
2019-02-09T13:59:47.463Z,48.52
2019-02-09T14:02:16.855Z,47.84
2019-02-09T14:04:46.348Z,47.85
2019-02-09T14:07:17.263Z,47.73
2019-02-09T14:09:46.743Z,47.53
2019-02-09T14:12:16.271Z,47.15
2019-02-09T14:14:45.657Z,47.30
2019-02-09T14:17:17.688Z,47.88
2019-02-09T14:19:48.794Z,47.88
2019-02-09T14:22:18.229Z,47.46
2019-02-09T14:24:48.046Z,47.34
2019-02-09T14:27:19.751Z,47.70
2019-02-09T14:29:52.448Z,48.34
2019-02-09T14:32:22.966Z,49.03
2019-02-09T14:34:53.899Z,50.44
2019-02-09T14:37:23.420Z,51.01
2019-02-09T14:39:53.881Z,51.04
2019-02-09T14:42:23.386Z,50.93
2019-02-09T14:44:52.772Z,51.23
2019-02-09T14:47:22.192Z,52.21
